createdAt,value
2022-12-07T00:00:34.404Z,4.10
2022-12-07T00:04:37.421Z,4.10
2022-12-07T00:08:40.491Z,4.10
2022-12-07T00:12:44.946Z,4.10
2022-12-07T00:16:48.100Z,4.00
2022-12-07T00:20:51.177Z,4.00
2022-12-07T00:24:54.197Z,4.00
2022-12-07T00:29:32.743Z,4.00
2022-12-07T00:33:36.253Z,4.00
2022-12-07T00:37:39.244Z,4.00
2022-12-07T00:41:42.407Z,4.00
2022-12-07T00:45:46.898Z,4.00
2022-12-07T00:49:50.045Z,4.00
2022-12-07T00:53:53.782Z,4.00
2022-12-07T00:57:56.837Z,4.00
2022-12-07T01:02:01.269Z,4.00
2022-12-07T01:06:04.546Z,4.00
2022-12-07T01:10:41.773Z,4.00
2022-12-07T01:14:45.033Z,4.00
2022-12-07T01:18:50.726Z,4.00
2022-12-07T01:22:53.737Z,3.90
2022-12-07T01:26:56.774Z,4.00
2022-12-07T01:31:01.417Z,3.90
2022-12-07T01:35:06.625Z,3.90
2022-12-07T01:39:11.957Z,3.90
2022-12-07T01:43:45.682Z,3.90
2022-12-07T01:47:52.450Z,3.80
2022-12-07T01:52:02.669Z,3.80
2022-12-07T01:56:06.918Z,3.90
2022-12-07T02:00:12.608Z,3.90
2022-12-07T02:04:15.763Z,3.90
2022-12-07T02:08:20.811Z,3.80
2022-12-07T02:12:25.756Z,3.90
2022-12-07T02:16:37.020Z,3.90
2022-12-07T02:21:08.425Z,3.90
2022-12-07T02:25:24.613Z,3.90
2022-12-07T02:29:32.298Z,3.80
2022-12-07T02:34:03.098Z,3.70
2022-12-07T02:38:14.194Z,3.70
2022-12-07T02:42:24.218Z,3.60
2022-12-07T02:46:38.304Z,3.60
2022-12-07T02:50:41.482Z,3.60
2022-12-07T02:54:44.526Z,3.60
2022-12-07T02:59:00.735Z,3.60
2022-12-07T03:03:11.669Z,3.60
2022-12-07T03:07:27.295Z,3.50
2022-12-07T03:11:37.396Z,3.50
2022-12-07T03:15:48.438Z,3.50
2022-12-07T03:19:57.453Z,3.50
2022-12-07T03:24:05.186Z,3.50
2022-12-07T03:28:09.598Z,3.60
2022-12-07T03:32:18.478Z,3.60
2022-12-07T03:36:28.774Z,3.60
2022-12-07T03:40:39.499Z,3.70
2022-12-07T03:44:43.652Z,3.70
2022-12-07T03:48:57.370Z,3.70
2022-12-07T03:53:07.370Z,3.70
2022-12-07T03:57:11.401Z,3.70
2022-12-07T04:01:14.524Z,3.70
2022-12-07T04:05:17.796Z,3.70
2022-12-07T04:09:22.945Z,3.70
2022-12-07T04:13:26.036Z,3.60
2022-12-07T04:17:29.159Z,3.70
2022-12-07T04:21:32.224Z,3.70
2022-12-07T04:25:36.757Z,3.70
2022-12-07T04:29:39.841Z,3.70
2022-12-07T04:33:42.887Z,3.70
2022-12-07T04:37:45.973Z,3.80
2022-12-07T04:41:51.156Z,3.70
2022-12-07T04:45:54.329Z,3.70
2022-12-07T04:49:57.460Z,3.60
2022-12-07T04:54:00.542Z,3.40
2022-12-07T04:58:05.119Z,3.30
2022-12-07T05:02:08.155Z,3.10
2022-12-07T05:06:13.744Z,2.90
2022-12-07T05:10:17.029Z,2.80
2022-12-07T05:14:22.629Z,2.70
2022-12-07T05:18:26.200Z,2.50
2022-12-07T05:22:29.357Z,2.40
2022-12-07T05:26:32.809Z,2.40
2022-12-07T05:30:37.245Z,2.30
2022-12-07T05:34:40.493Z,2.20
2022-12-07T05:38:43.690Z,2.20
2022-12-07T05:42:46.961Z,2.20
2022-12-07T05:46:51.680Z,2.10
2022-12-07T05:50:55.106Z,2.10
2022-12-07T05:54:58.453Z,2.20
2022-12-07T05:59:19.256Z,2.20
2022-12-07T06:03:23.720Z,2.20
2022-12-07T06:07:26.764Z,2.20
2022-12-07T06:11:47.229Z,2.20
2022-12-07T06:15:50.389Z,2.20
2022-12-07T06:19:54.988Z,2.20
2022-12-07T06:23:57.987Z,2.20
2022-12-07T06:28:01.283Z,2.30
2022-12-07T06:32:04.803Z,2.30
2022-12-07T06:36:10.248Z,2.30
2022-12-07T06:40:13.768Z,2.30
2022-12-07T06:44:16.901Z,2.30
2022-12-07T06:48:19.933Z,2.40
2022-12-07T06:52:24.557Z,2.50
2022-12-07T06:56:27.596Z,2.60
2022-12-07T07:00:31.077Z,2.60
2022-12-07T07:04:34.199Z,2.60
2022-12-07T07:08:39.248Z,2.60
2022-12-07T07:12:57.785Z,2.60
2022-12-07T07:17:01.206Z,2.60
2022-12-07T07:21:04.552Z,2.60
2022-12-07T07:25:09.664Z,2.60
2022-12-07T07:29:12.689Z,2.70
2022-12-07T07:33:16.161Z,2.70
2022-12-07T07:37:22.068Z,2.70
2022-12-07T07:41:26.807Z,2.80
2022-12-07T07:45:29.889Z,2.90
2022-12-07T07:49:33.085Z,3.00
2022-12-07T07:53:36.395Z,3.00
2022-12-07T07:57:41.857Z,3.10
2022-12-07T08:01:44.945Z,3.10
2022-12-07T08:05:48.038Z,3.20
2022-12-07T08:09:51.039Z,3.20
2022-12-07T08:13:55.572Z,3.30
2022-12-07T08:17:58.672Z,3.30
2022-12-07T08:22:01.763Z,3.30
2022-12-07T08:26:06.033Z,3.30
2022-12-07T08:30:11.443Z,3.40
2022-12-07T08:34:14.992Z,3.40
2022-12-07T08:38:18.112Z,3.40
2022-12-07T08:42:23.130Z,3.50
2022-12-07T08:46:34.311Z,3.50
2022-12-07T08:50:44.424Z,3.60
2022-12-07T08:54:51.262Z,3.60
2022-12-07T08:58:54.795Z,3.70
2022-12-07T09:02:59.274Z,3.70
2022-12-07T09:07:02.500Z,3.80
2022-12-07T09:11:06.028Z,3.90
2022-12-07T09:15:10.268Z,4.00
2022-12-07T09:19:14.893Z,4.10
2022-12-07T09:23:18.276Z,4.20
2022-12-07T09:27:21.330Z,4.20
2022-12-07T09:31:25.772Z,4.20
2022-12-07T09:35:30.999Z,4.30
2022-12-07T09:39:34.566Z,4.30
2022-12-07T09:43:41.312Z,4.50
2022-12-07T09:47:44.879Z,4.60
2022-12-07T09:51:49.557Z,4.70
2022-12-07T09:55:52.728Z,4.80
2022-12-07T09:59:56.682Z,4.90
2022-12-07T10:04:08.108Z,5.00
2022-12-07T10:08:14.071Z,5.10
2022-12-07T10:12:17.596Z,5.10
2022-12-07T10:16:40.264Z,5.10
2022-12-07T10:20:43.399Z,5.10
2022-12-07T10:24:49.477Z,5.20
2022-12-07T10:28:52.523Z,5.30
2022-12-07T10:32:55.537Z,5.40
2022-12-07T10:37:29.685Z,5.50
2022-12-07T10:41:34.112Z,5.60
2022-12-07T10:46:02.551Z,5.60
2022-12-07T10:50:43.800Z,5.60
2022-12-07T10:54:57.614Z,5.70
2022-12-07T10:59:19.500Z,5.90
2022-12-07T11:04:17.231Z,5.80
2022-12-07T11:08:33.834Z,5.90
2022-12-07T11:12:56.959Z,5.90
2022-12-07T11:17:38.446Z,6.00
2022-12-07T11:21:50.979Z,6.00
2022-12-07T11:26:01.610Z,6.10
2022-12-07T11:30:14.805Z,6.10
2022-12-07T11:34:44.417Z,6.10
2022-12-07T11:38:53.004Z,6.00
2022-12-07T11:43:27.019Z,5.90
2022-12-07T11:47:37.492Z,5.90
2022-12-07T11:52:08.279Z,5.90
2022-12-07T11:56:14.923Z,5.80
2022-12-07T12:00:46.290Z,5.80
2022-12-07T12:05:24.324Z,5.70
2022-12-07T12:09:41.056Z,5.50
2022-12-07T12:18:48.673Z,5.10
2022-12-07T12:23:15.136Z,5.10
2022-12-07T12:27:24.480Z,5.20
2022-12-07T12:31:43.210Z,5.20
2022-12-07T12:36:21.850Z,5.30
2022-12-07T12:40:51.036Z,5.40
2022-12-07T12:45:26.641Z,5.50
2022-12-07T12:49:46.178Z,5.60
2022-12-07T12:53:49.511Z,5.60
2022-12-07T12:58:29.834Z,5.70
2022-12-07T13:02:34.370Z,5.70
2022-12-07T13:07:14.295Z,5.50
2022-12-07T13:11:22.310Z,5.50
2022-12-07T13:15:37.755Z,5.60
2022-12-07T13:20:00.433Z,5.60
2022-12-07T13:24:11.667Z,5.60
2022-12-07T13:28:18.745Z,5.70
2022-12-07T13:32:26.651Z,5.60
2022-12-07T13:36:36.678Z,5.70
2022-12-07T13:41:07.801Z,5.70
2022-12-07T13:45:44.082Z,5.70
2022-12-07T13:49:53.737Z,5.70
2022-12-07T13:54:02.002Z,5.70
2022-12-07T13:58:35.075Z,5.70
2022-12-07T14:02:44.064Z,5.70
2022-12-07T14:06:53.158Z,5.70
2022-12-07T14:11:31.583Z,5.70
2022-12-07T14:15:37.064Z,5.70
2022-12-07T14:20:25.814Z,5.60
2022-12-07T14:24:28.898Z,5.60
2022-12-07T14:29:05.595Z,5.60
2022-12-07T14:33:11.914Z,5.50
2022-12-07T14:37:42.502Z,5.50
2022-12-07T14:41:54.913Z,5.50
2022-12-07T14:45:58.047Z,5.50
2022-12-07T14:50:38.626Z,5.30
2022-12-07T14:54:43.363Z,5.30
2022-12-07T14:58:49.085Z,5.30
2022-12-07T15:03:23.149Z,5.30
2022-12-07T15:07:27.642Z,5.30
2022-12-07T15:12:01.279Z,5.20
2022-12-07T15:16:04.748Z,5.20
2022-12-07T15:20:10.449Z,5.20
2022-12-07T15:24:15.042Z,5.20
2022-12-07T15:28:18.580Z,5.20
2022-12-07T15:32:21.719Z,5.10
2022-12-07T15:36:55.647Z,5.10
2022-12-07T15:41:00.185Z,5.10
2022-12-07T15:45:06.705Z,5.00
2022-12-07T15:49:38.161Z,4.90
2022-12-07T15:53:41.302Z,4.90
2022-12-07T15:57:45.727Z,4.90
2022-12-07T16:02:19.241Z,4.80
2022-12-07T16:06:22.255Z,4.80
2022-12-07T16:10:25.249Z,4.80
2022-12-07T16:14:29.991Z,4.80
2022-12-07T16:18:33.051Z,4.80
2022-12-07T16:22:36.082Z,4.60
2022-12-07T16:26:39.111Z,4.50
2022-12-07T16:30:43.527Z,4.40
2022-12-07T16:34:46.546Z,4.30
2022-12-07T16:38:52.248Z,4.20
2022-12-07T16:42:55.664Z,4.20
2022-12-07T16:47:01.420Z,4.20
2022-12-07T16:51:38.151Z,4.10
2022-12-07T16:55:42.162Z,4.20
2022-12-07T16:59:45.186Z,4.20
2022-12-07T17:04:23.482Z,4.10
2022-12-07T17:08:57.225Z,4.20
2022-12-07T17:13:00.259Z,4.10
2022-12-07T17:17:37.354Z,4.20
2022-12-07T17:21:42.320Z,4.20
2022-12-07T17:26:17.741Z,4.20
2022-12-07T17:30:51.233Z,4.10
2022-12-07T17:34:54.496Z,4.10
2022-12-07T17:38:59.223Z,4.10
2022-12-07T17:43:33.224Z,4.10
2022-12-07T17:47:36.533Z,4.20
2022-12-07T17:52:30.889Z,4.10
2022-12-07T17:56:35.368Z,4.10
2022-12-07T18:01:10.295Z,4.10
2022-12-07T18:05:49.187Z,4.10
2022-12-07T18:10:22.940Z,4.10
2022-12-07T18:15:01.672Z,4.10
2022-12-07T18:19:37.271Z,4.10
2022-12-07T18:24:11.947Z,4.10
2022-12-07T18:28:46.520Z,4.20
2022-12-07T18:33:20.264Z,4.20
2022-12-07T18:37:27.573Z,4.20
2022-12-07T18:41:30.696Z,4.30
2022-12-07T18:45:36.865Z,4.30
2022-12-07T18:50:10.922Z,4.20
2022-12-07T18:54:49.730Z,4.20
2022-12-07T18:59:11.653Z,4.10
2022-12-07T19:03:33.585Z,4.10
2022-12-07T19:08:04.958Z,4.00
2022-12-07T19:12:12.935Z,4.10
2022-12-07T19:16:16.112Z,4.00
2022-12-07T19:20:19.310Z,4.00
2022-12-07T19:24:23.872Z,4.00
2022-12-07T19:29:02.516Z,4.00
2022-12-07T19:33:05.643Z,4.00
2022-12-07T19:37:09.545Z,4.00
2022-12-07T19:41:28.884Z,4.00
2022-12-07T19:45:48.937Z,4.00
2022-12-07T19:49:52.052Z,4.00
2022-12-07T19:54:30.095Z,3.90
2022-12-07T19:59:04.208Z,3.90
2022-12-07T20:03:40.798Z,3.90
2022-12-07T20:08:19.089Z,3.90
2022-12-07T20:13:17.127Z,3.90
2022-12-07T20:17:20.333Z,3.80
2022-12-07T20:21:23.547Z,3.80
2022-12-07T20:26:04.663Z,3.80
2022-12-07T20:30:09.434Z,3.80
2022-12-07T20:34:44.610Z,3.80
2022-12-07T20:39:23.619Z,3.70
2022-12-07T20:43:28.256Z,3.70
2022-12-07T20:48:02.334Z,3.70
2022-12-07T20:52:39.054Z,3.70
2022-12-07T20:56:42.769Z,3.70
2022-12-07T21:00:47.382Z,3.70
2022-12-07T21:05:21.155Z,3.60
2022-12-07T21:09:27.172Z,3.50
2022-12-07T21:13:30.191Z,3.40
2022-12-07T21:17:34.823Z,3.30
2022-12-07T21:21:37.852Z,3.20
2022-12-07T21:25:40.934Z,3.10
2022-12-07T21:29:45.699Z,3.10
2022-12-07T21:33:52.215Z,2.90
2022-12-07T21:37:55.229Z,2.90
2022-12-07T21:42:32.186Z,2.70
2022-12-07T21:46:35.438Z,2.60
2022-12-07T21:50:40.479Z,2.60
2022-12-07T21:54:44.814Z,2.60
2022-12-07T21:58:48.259Z,2.60
2022-12-07T22:02:51.388Z,2.60
2022-12-07T22:07:29.665Z,2.50
2022-12-07T22:11:33.107Z,2.50
2022-12-07T22:15:36.201Z,2.40
2022-12-07T22:19:39.304Z,2.30
2022-12-07T22:23:43.676Z,2.20
2022-12-07T22:27:46.695Z,2.20
2022-12-07T22:31:53.709Z,2.20
2022-12-07T22:35:57.699Z,2.10
2022-12-07T22:40:33.213Z,2.10
2022-12-07T22:44:36.216Z,2.10
2022-12-07T22:48:39.255Z,2.10
2022-12-07T22:52:42.379Z,2.10
2022-12-07T22:56:47.264Z,2.00
2022-12-07T23:00:50.237Z,2.10
2022-12-07T23:04:53.260Z,2.10
2022-12-07T23:08:58.512Z,2.00
2022-12-07T23:13:20.524Z,2.00
2022-12-07T23:17:39.097Z,1.90
2022-12-07T23:21:43.015Z,1.80
2022-12-07T23:25:46.108Z,1.70
2022-12-07T23:29:50.583Z,1.70
2022-12-07T23:33:53.598Z,1.60
2022-12-07T23:37:56.604Z,1.60
2022-12-07T23:41:59.915Z,1.60
2022-12-07T23:46:04.845Z,1.60
2022-12-07T23:50:38.466Z,1.60
2022-12-07T23:54:41.481Z,1.60
2022-12-07T23:58:44.625Z,1.70
